sensor_id;sensor_type;location;lat;lon;timestamp;P1;durP1;ratioP1;P2;durP2;ratioP2
72493;SDS011;60520;49.182;-0.348;2023-04-03T00:01:39;3.92;;;1.30;;
72493;SDS011;60520;49.182;-0.348;2023-04-03T00:04:06;2.88;;;1.10;;
72493;SDS011;60520;49.182;-0.348;2023-04-03T00:06:36;4.57;;;1.52;;
72493;SDS011;60520;49.182;-0.348;2023-04-03T00:09:03;3.72;;;1.50;;
72493;SDS011;60520;49.182;-0.348;2023-04-03T00:11:30;4.53;;;1.42;;
72493;SDS011;60520;49.182;-0.348;2023-04-03T00:13:58;5.65;;;1.70;;
72493;SDS011;60520;49.182;-0.348;2023-04-03T00:16:25;4.38;;;1.48;;
72493;SDS011;60520;49.182;-0.348;2023-04-03T00:18:52;4.00;;;1.58;;
72493;SDS011;60520;49.182;-0.348;2023-04-03T00:21:19;5.13;;;1.70;;
72493;SDS011;60520;49.182;-0.348;2023-04-03T00:23:47;2.80;;;1.20;;
72493;SDS011;60520;49.182;-0.348;2023-04-03T00:26:15;4.15;;;1.50;;
72493;SDS011;60520;49.182;-0.348;2023-04-03T00:28:42;3.25;;;1.50;;
72493;SDS011;60520;49.182;-0.348;2023-04-03T00:31:09;3.30;;;1.27;;
72493;SDS011;60520;49.182;-0.348;2023-04-03T00:33:36;4.53;;;1.50;;
72493;SDS011;60520;49.182;-0.348;2023-04-03T00:36:07;4.63;;;1.80;;
72493;SDS011;60520;49.182;-0.348;2023-04-03T00:38:35;3.28;;;1.30;;
72493;SDS011;60520;49.182;-0.348;2023-04-03T00:41:03;5.78;;;1.70;;
72493;SDS011;60520;49.182;-0.348;2023-04-03T00:43:31;3.85;;;1.40;;
72493;SDS011;60520;49.182;-0.348;2023-04-03T00:45:58;4.50;;;1.60;;
72493;SDS011;60520;49.182;-0.348;2023-04-03T00:48:27;5.15;;;1.83;;
72493;SDS011;60520;49.182;-0.348;2023-04-03T00:50:55;2.75;;;1.00;;
72493;SDS011;60520;49.182;-0.348;2023-04-03T00:53:23;5.30;;;1.52;;
72493;SDS011;60520;49.182;-0.348;2023-04-03T00:55:52;5.72;;;1.40;;
72493;SDS011;60520;49.182;-0.348;2023-04-03T00:58:22;6.15;;;1.52;;
72493;SDS011;60520;49.182;-0.348;2023-04-03T01:00:52;5.03;;;1.38;;
72493;SDS011;60520;49.182;-0.348;2023-04-03T01:03:22;5.28;;;1.48;;
72493;SDS011;60520;49.182;-0.348;2023-04-03T01:05:49;3.95;;;1.40;;
72493;SDS011;60520;49.182;-0.348;2023-04-03T01:08:17;4.40;;;1.48;;
72493;SDS011;60520;49.182;-0.348;2023-04-03T01:10:44;3.75;;;1.23;;
72493;SDS011;60520;49.182;-0.348;2023-04-03T01:13:18;3.60;;;1.25;;
72493;SDS011;60520;49.182;-0.348;2023-04-03T01:15:48;3.78;;;1.65;;
72493;SDS011;60520;49.182;-0.348;2023-04-03T01:18:15;3.55;;;1.40;;
72493;SDS011;60520;49.182;-0.348;2023-04-03T01:23:38;3.53;;;1.20;;
72493;SDS011;60520;49.182;-0.348;2023-04-03T01:26:07;4.10;;;1.27;;
72493;SDS011;60520;49.182;-0.348;2023-04-03T01:28:35;4.70;;;1.40;;
72493;SDS011;60520;49.182;-0.348;2023-04-03T01:31:06;3.67;;;1.30;;
72493;SDS011;60520;49.182;-0.348;2023-04-03T01:33:36;3.42;;;1.33;;
72493;SDS011;60520;49.182;-0.348;2023-04-03T01:36:04;4.63;;;1.40;;
72493;SDS011;60520;49.182;-0.348;2023-04-03T01:38:31;4.13;;;1.70;;
72493;SDS011;60520;49.182;-0.348;2023-04-03T01:40:59;3.10;;;1.23;;
72493;SDS011;60520;49.182;-0.348;2023-04-03T01:43:26;4.38;;;1.40;;
72493;SDS011;60520;49.182;-0.348;2023-04-03T01:45:53;2.90;;;1.20;;
72493;SDS011;60520;49.182;-0.348;2023-04-03T01:48:20;4.63;;;1.23;;
72493;SDS011;60520;49.182;-0.348;2023-04-03T01:50:49;2.85;;;1.30;;
72493;SDS011;60520;49.182;-0.348;2023-04-03T01:53:16;3.03;;;1.23;;
72493;SDS011;60520;49.182;-0.348;2023-04-03T01:55:43;4.25;;;1.25;;
72493;SDS011;60520;49.182;-0.348;2023-04-03T01:58:10;3.78;;;1.27;;
72493;SDS011;60520;49.182;-0.348;2023-04-03T02:00:37;3.70;;;1.20;;
72493;SDS011;60520;49.182;-0.348;2023-04-03T02:03:04;4.38;;;1.23;;
72493;SDS011;60520;49.182;-0.348;2023-04-03T02:05:31;3.60;;;1.20;;
72493;SDS011;60520;49.182;-0.348;2023-04-03T02:08:00;3.65;;;1.25;;
72493;SDS011;60520;49.182;-0.348;2023-04-03T02:10:27;2.03;;;1.10;;
72493;SDS011;60520;49.182;-0.348;2023-04-03T02:12:54;3.00;;;1.00;;
72493;SDS011;60520;49.182;-0.348;2023-04-03T02:15:21;2.97;;;1.13;;
72493;SDS011;60520;49.182;-0.348;2023-04-03T02:17:48;3.35;;;1.20;;
72493;SDS011;60520;49.182;-0.348;2023-04-03T02:20:16;2.85;;;1.38;;
72493;SDS011;60520;49.182;-0.348;2023-04-03T02:22:43;2.38;;;1.05;;
72493;SDS011;60520;49.182;-0.348;2023-04-03T02:25:11;2.78;;;1.15;;
72493;SDS011;60520;49.182;-0.348;2023-04-03T02:27:39;3.25;;;1.40;;
72493;SDS011;60520;49.182;-0.348;2023-04-03T02:30:06;2.63;;;1.10;;
72493;SDS011;60520;49.182;-0.348;2023-04-03T02:32:35;2.53;;;1.00;;
72493;SDS011;60520;49.182;-0.348;2023-04-03T02:35:03;3.72;;;1.13;;
72493;SDS011;60520;49.182;-0.348;2023-04-03T02:37:30;3.03;;;1.30;;
72493;SDS011;60520;49.182;-0.348;2023-04-03T02:39:57;3.10;;;1.17;;
72493;SDS011;60520;49.182;-0.348;2023-04-03T02:42:25;1.83;;;1.15;;
72493;SDS011;60520;49.182;-0.348;2023-04-03T02:44:53;1.20;;;0.60;;
72493;SDS011;60520;49.182;-0.348;2023-04-03T02:47:20;2.55;;;1.10;;
72493;SDS011;60520;49.182;-0.348;2023-04-03T02:49:47;3.03;;;1.20;;
72493;SDS011;60520;49.182;-0.348;2023-04-03T02:52:14;3.28;;;1.20;;
72493;SDS011;60520;49.182;-0.348;2023-04-03T02:54:41;2.85;;;1.10;;
72493;SDS011;60520;49.182;-0.348;2023-04-03T02:57:08;3.08;;;1.00;;
72493;SDS011;60520;49.182;-0.348;2023-04-03T02:59:37;2.65;;;1.17;;
72493;SDS011;60520;49.182;-0.348;2023-04-03T03:02:05;2.25;;;1.00;;
72493;SDS011;60520;49.182;-0.348;2023-04-03T03:04:33;2.78;;;1.20;;
72493;SDS011;60520;49.182;-0.348;2023-04-03T03:07:00;2.65;;;0.90;;
72493;SDS011;60520;49.182;-0.348;2023-04-03T03:09:27;3.00;;;1.30;;
72493;SDS011;60520;49.182;-0.348;2023-04-03T03:11:54;2.42;;;1.08;;
72493;SDS011;60520;49.182;-0.348;2023-04-03T03:14:21;2.08;;;1.10;;
72493;SDS011;60520;49.182;-0.348;2023-04-03T03:16:50;2.95;;;1.08;;
72493;SDS011;60520;49.182;-0.348;2023-04-03T03:19:17;3.40;;;1.20;;
72493;SDS011;60520;49.182;-0.348;2023-04-03T03:21:44;1.83;;;0.93;;
72493;SDS011;60520;49.182;-0.348;2023-04-03T03:24:11;2.67;;;1.10;;
72493;SDS011;60520;49.182;-0.348;2023-04-03T03:26:38;2.22;;;1.10;;
72493;SDS011;60520;49.182;-0.348;2023-04-03T03:29:06;2.25;;;1.10;;
72493;SDS011;60520;49.182;-0.348;2023-04-03T03:31:33;3.15;;;1.10;;
72493;SDS011;60520;49.182;-0.348;2023-04-03T03:34:01;2.90;;;1.30;;
72493;SDS011;60520;49.182;-0.348;2023-04-03T03:36:28;2.03;;;1.20;;
72493;SDS011;60520;49.182;-0.348;2023-04-03T03:38:56;1.75;;;0.90;;
72493;SDS011;60520;49.182;-0.348;2023-04-03T03:41:23;2.38;;;0.93;;
72493;SDS011;60520;49.182;-0.348;2023-04-03T03:43:51;2.00;;;1.10;;
72493;SDS011;60520;49.182;-0.348;2023-04-03T03:46:18;1.85;;;0.93;;
72493;SDS011;60520;49.182;-0.348;2023-04-03T03:48:45;2.47;;;1.02;;
72493;SDS011;60520;49.182;-0.348;2023-04-03T03:51:13;1.90;;;0.88;;
72493;SDS011;60520;49.182;-0.348;2023-04-03T03:53:40;2.17;;;1.00;;
72493;SDS011;60520;49.182;-0.348;2023-04-03T03:56:07;1.60;;;0.85;;
72493;SDS011;60520;49.182;-0.348;2023-04-03T03:58:35;1.05;;;0.80;;
72493;SDS011;60520;49.182;-0.348;2023-04-03T04:01:02;2.58;;;1.10;;
72493;SDS011;60520;49.182;-0.348;2023-04-03T04:03:30;2.88;;;0.98;;
72493;SDS011;60520;49.182;-0.348;2023-04-03T04:05:57;1.98;;;1.00;;
72493;SDS011;60520;49.182;-0.348;2023-04-03T04:08:26;2.80;;;1.05;;
72493;SDS011;60520;49.182;-0.348;2023-04-03T04:10:53;1.85;;;0.80;;
72493;SDS011;60520;49.182;-0.348;2023-04-03T04:13:20;2.00;;;1.02;;
72493;SDS011;60520;49.182;-0.348;2023-04-03T04:15:47;2.28;;;1.15;;
72493;SDS011;60520;49.182;-0.348;2023-04-03T04:18:14;2.83;;;0.90;;
72493;SDS011;60520;49.182;-0.348;2023-04-03T04:20:44;2.53;;;1.10;;
72493;SDS011;60520;49.182;-0.348;2023-04-03T04:23:11;2.28;;;1.00;;
72493;SDS011;60520;49.182;-0.348;2023-04-03T04:25:40;1.98;;;0.90;;
72493;SDS011;60520;49.182;-0.348;2023-04-03T04:28:07;1.58;;;1.00;;
72493;SDS011;60520;49.182;-0.348;2023-04-03T04:30:34;2.35;;;0.93;;
72493;SDS011;60520;49.182;-0.348;2023-04-03T04:33:01;2.35;;;0.93;;
72493;SDS011;60520;49.182;-0.348;2023-04-03T04:35:28;2.85;;;1.00;;
72493;SDS011;60520;49.182;-0.348;2023-04-03T04:37:55;2.13;;;1.10;;
72493;SDS011;60520;49.182;-0.348;2023-04-03T04:40:22;1.80;;;0.98;;
72493;SDS011;60520;49.182;-0.348;2023-04-03T04:42:51;2.17;;;0.90;;
72493;SDS011;60520;49.182;-0.348;2023-04-03T04:45:18;2.17;;;0.98;;
72493;SDS011;60520;49.182;-0.348;2023-04-03T04:47:45;2.05;;;1.00;;
72493;SDS011;60520;49.182;-0.348;2023-04-03T04:50:13;2.80;;;1.02;;
72493;SDS011;60520;49.182;-0.348;2023-04-03T04:52:40;2.25;;;1.10;;
72493;SDS011;60520;49.182;-0.348;2023-04-03T04:55:07;1.70;;;0.93;;
72493;SDS011;60520;49.182;-0.348;2023-04-03T04:57:34;1.65;;;0.82;;
72493;SDS011;60520;49.182;-0.348;2023-04-03T05:00:05;2.03;;;1.20;;
72493;SDS011;60520;49.182;-0.348;2023-04-03T05:02:33;2.80;;;1.00;;
72493;SDS011;60520;49.182;-0.348;2023-04-03T05:05:00;1.50;;;0.98;;
72493;SDS011;60520;49.182;-0.348;2023-04-03T05:07:27;2.03;;;1.15;;
72493;SDS011;60520;49.182;-0.348;2023-04-03T05:09:54;1.83;;;1.13;;
72493;SDS011;60520;49.182;-0.348;2023-04-03T05:12:21;1.90;;;0.90;;
72493;SDS011;60520;49.182;-0.348;2023-04-03T05:14:48;1.40;;;0.85;;
72493;SDS011;60520;49.182;-0.348;2023-04-03T05:17:16;2.63;;;0.90;;
72493;SDS011;60520;49.182;-0.348;2023-04-03T05:19:44;1.65;;;0.77;;
72493;SDS011;60520;49.182;-0.348;2023-04-03T05:22:11;2.17;;;1.02;;
72493;SDS011;60520;49.182;-0.348;2023-04-03T05:24:38;1.98;;;0.90;;
72493;SDS011;60520;49.182;-0.348;2023-04-03T05:27:05;1.88;;;0.93;;
72493;SDS011;60520;49.182;-0.348;2023-04-03T05:29:32;1.30;;;0.70;;
72493;SDS011;60520;49.182;-0.348;2023-04-03T05:31:59;3.40;;;1.00;;
72493;SDS011;60520;49.182;-0.348;2023-04-03T05:34:28;2.20;;;1.08;;
72493;SDS011;60520;49.182;-0.348;2023-04-03T05:36:55;1.75;;;0.80;;
72493;SDS011;60520;49.182;-0.348;2023-04-03T05:39:22;1.90;;;0.90;;
72493;SDS011;60520;49.182;-0.348;2023-04-03T05:41:49;1.85;;;1.02;;
72493;SDS011;60520;49.182;-0.348;2023-04-03T05:44:16;1.45;;;0.90;;
72493;SDS011;60520;49.182;-0.348;2023-04-03T05:46:43;2.67;;;0.93;;
72493;SDS011;60520;49.182;-0.348;2023-04-03T05:49:10;2.75;;;1.20;;
72493;SDS011;60520;49.182;-0.348;2023-04-03T05:51:39;1.52;;;0.95;;
72493;SDS011;60520;49.182;-0.348;2023-04-03T05:54:09;1.20;;;0.80;;
72493;SDS011;60520;49.182;-0.348;2023-04-03T05:56:36;1.60;;;0.80;;
72493;SDS011;60520;49.182;-0.348;2023-04-03T05:59:04;3.25;;;0.98;;
72493;SDS011;60520;49.182;-0.348;2023-04-03T06:01:32;1.50;;;0.90;;
72493;SDS011;60520;49.182;-0.348;2023-04-03T06:04:00;2.05;;;0.88;;
72493;SDS011;60520;49.182;-0.348;2023-04-03T06:09:11;1.20;;;0.90;;
72493;SDS011;60520;49.182;-0.348;2023-04-03T06:11:38;1.67;;;1.00;;
72493;SDS011;60520;49.182;-0.348;2023-04-03T06:14:06;1.63;;;0.73;;
72493;SDS011;60520;49.182;-0.348;2023-04-03T06:16:34;1.75;;;0.93;;
72493;SDS011;60520;49.182;-0.348;2023-04-03T06:19:01;1.45;;;0.80;;
72493;SDS011;60520;49.182;-0.348;2023-04-03T06:21:29;1.80;;;0.88;;
72493;SDS011;60520;49.182;-0.348;2023-04-03T06:23:56;1.95;;;0.90;;
72493;SDS011;60520;49.182;-0.348;2023-04-03T06:26:24;1.70;;;1.00;;
72493;SDS011;60520;49.182;-0.348;2023-04-03T06:28:52;1.65;;;0.90;;
72493;SDS011;60520;49.182;-0.348;2023-04-03T06:31:19;0.90;;;0.80;;
72493;SDS011;60520;49.182;-0.348;2023-04-03T06:33:46;1.65;;;0.90;;
72493;SDS011;60520;49.182;-0.348;2023-04-03T06:36:13;1.73;;;0.95;;
72493;SDS011;60520;49.182;-0.348;2023-04-03T06:38:44;1.25;;;0.90;;
72493;SDS011;60520;49.182;-0.348;2023-04-03T06:41:11;1.85;;;0.90;;
72493;SDS011;60520;49.182;-0.348;2023-04-03T06:43:40;1.10;;;0.82;;
72493;SDS011;60520;49.182;-0.348;2023-04-03T06:46:09;2.17;;;1.10;;
72493;SDS011;60520;49.182;-0.348;2023-04-03T06:48:38;1.55;;;0.98;;
72493;SDS011;60520;49.182;-0.348;2023-04-03T06:51:05;0.80;;;0.70;;
72493;SDS011;60520;49.182;-0.348;2023-04-03T06:53:32;1.52;;;0.80;;
72493;SDS011;60520;49.182;-0.348;2023-04-03T06:55:59;1.35;;;0.90;;
72493;SDS011;60520;49.182;-0.348;2023-04-03T06:58:26;0.70;;;0.70;;
72493;SDS011;60520;49.182;-0.348;2023-04-03T07:00:55;1.75;;;1.00;;
72493;SDS011;60520;49.182;-0.348;2023-04-03T07:03:22;3.28;;;1.00;;
72493;SDS011;60520;49.182;-0.348;2023-04-03T07:05:49;1.13;;;0.80;;
72493;SDS011;60520;49.182;-0.348;2023-04-03T07:08:16;1.27;;;0.90;;
72493;SDS011;60520;49.182;-0.348;2023-04-03T07:10:43;3.13;;;0.98;;
72493;SDS011;60520;49.182;-0.348;2023-04-03T07:13:10;1.65;;;0.85;;
72493;SDS011;60520;49.182;-0.348;2023-04-03T07:15:38;1.10;;;0.80;;
72493;SDS011;60520;49.182;-0.348;2023-04-03T07:18:06;1.08;;;0.82;;
72493;SDS011;60520;49.182;-0.348;2023-04-03T07:20:33;1.63;;;0.90;;
72493;SDS011;60520;49.182;-0.348;2023-04-03T07:23:01;1.17;;;0.70;;
72493;SDS011;60520;49.182;-0.348;2023-04-03T07:25:28;2.90;;;0.88;;
72493;SDS011;60520;49.182;-0.348;2023-04-03T07:27:56;1.92;;;0.80;;
72493;SDS011;60520;49.182;-0.348;2023-04-03T07:30:23;1.63;;;0.90;;
72493;SDS011;60520;49.182;-0.348;2023-04-03T07:32:51;2.85;;;0.88;;
72493;SDS011;60520;49.182;-0.348;2023-04-03T07:35:19;2.03;;;0.90;;
72493;SDS011;60520;49.182;-0.348;2023-04-03T07:37:47;1.10;;;0.80;;
72493;SDS011;60520;49.182;-0.348;2023-04-03T07:40:14;1.20;;;0.90;;
72493;SDS011;60520;49.182;-0.348;2023-04-03T07:42:41;1.58;;;0.60;;
72493;SDS011;60520;49.182;-0.348;2023-04-03T07:45:09;2.67;;;0.75;;
72493;SDS011;60520;49.182;-0.348;2023-04-03T07:47:36;1.13;;;0.80;;
72493;SDS011;60520;49.182;-0.348;2023-04-03T07:50:03;1.60;;;0.90;;
72493;SDS011;60520;49.182;-0.348;2023-04-03T07:52:32;1.13;;;0.73;;
72493;SDS011;60520;49.182;-0.348;2023-04-03T07:54:59;1.33;;;0.95;;
72493;SDS011;60520;49.182;-0.348;2023-04-03T07:57:26;0.98;;;0.75;;
72493;SDS011;60520;49.182;-0.348;2023-04-03T07:59:55;2.70;;;0.90;;
72493;SDS011;60520;49.182;-0.348;2023-04-03T08:02:23;1.90;;;0.90;;
72493;SDS011;60520;49.182;-0.348;2023-04-03T08:04:50;1.17;;;0.63;;
72493;SDS011;60520;49.182;-0.348;2023-04-03T08:07:17;1.10;;;0.80;;
72493;SDS011;60520;49.182;-0.348;2023-04-03T08:09:45;0.90;;;0.80;;
72493;SDS011;60520;49.182;-0.348;2023-04-03T08:12:12;1.25;;;0.70;;
72493;SDS011;60520;49.182;-0.348;2023-04-03T08:14:40;1.48;;;0.80;;
72493;SDS011;60520;49.182;-0.348;2023-04-03T08:17:07;0.88;;;0.60;;
72493;SDS011;60520;49.182;-0.348;2023-04-03T08:19:36;0.73;;;0.60;;
72493;SDS011;60520;49.182;-0.348;2023-04-03T08:22:04;0.90;;;0.63;;
72493;SDS011;60520;49.182;-0.348;2023-04-03T08:24:31;0.80;;;0.70;;
72493;SDS011;60520;49.182;-0.348;2023-04-03T08:27:00;3.58;;;0.73;;
72493;SDS011;60520;49.182;-0.348;2023-04-03T08:29:27;0.98;;;0.70;;
72493;SDS011;60520;49.182;-0.348;2023-04-03T08:31:55;1.48;;;0.75;;
72493;SDS011;60520;49.182;-0.348;2023-04-03T08:34:22;2.70;;;0.77;;
72493;SDS011;60520;49.182;-0.348;2023-04-03T08:36:49;1.35;;;0.80;;
72493;SDS011;60520;49.182;-0.348;2023-04-03T08:39:16;0.98;;;0.68;;
72493;SDS011;60520;49.182;-0.348;2023-04-03T08:41:44;1.20;;;0.63;;
72493;SDS011;60520;49.182;-0.348;2023-04-03T08:44:15;1.65;;;0.75;;
72493;SDS011;60520;49.182;-0.348;2023-04-03T08:46:49;2.28;;;0.95;;
72493;SDS011;60520;49.182;-0.348;2023-04-03T08:49:21;2.58;;;0.70;;
72493;SDS011;60520;49.182;-0.348;2023-04-03T08:51:49;1.42;;;0.70;;
72493;SDS011;60520;49.182;-0.348;2023-04-03T08:54:21;1.13;;;0.70;;
72493;SDS011;60520;49.182;-0.348;2023-04-03T08:56:49;2.63;;;0.60;;
72493;SDS011;60520;49.182;-0.348;2023-04-03T08:59:19;0.88;;;0.68;;
72493;SDS011;60520;49.182;-0.348;2023-04-03T09:01:49;1.25;;;0.60;;
72493;SDS011;60520;49.182;-0.348;2023-04-03T09:04:16;0.93;;;0.77;;
72493;SDS011;60520;49.182;-0.348;2023-04-03T09:06:44;1.42;;;0.60;;
72493;SDS011;60520;49.182;-0.348;2023-04-03T09:09:14;0.95;;;0.60;;
72493;SDS011;60520;49.182;-0.348;2023-04-03T09:11:45;2.83;;;0.60;;
72493;SDS011;60520;49.182;-0.348;2023-04-03T09:14:14;1.35;;;0.70;;
72493;SDS011;60520;49.182;-0.348;2023-04-03T09:16:48;1.20;;;0.70;;
72493;SDS011;60520;49.182;-0.348;2023-04-03T09:19:18;1.20;;;0.70;;
72493;SDS011;60520;49.182;-0.348;2023-04-03T09:21:47;0.88;;;0.63;;
72493;SDS011;60520;49.182;-0.348;2023-04-03T09:24:15;0.90;;;0.50;;
72493;SDS011;60520;49.182;-0.348;2023-04-03T09:26:44;1.92;;;0.65;;
72493;SDS011;60520;49.182;-0.348;2023-04-03T09:29:14;3.40;;;0.60;;
72493;SDS011;60520;49.182;-0.348;2023-04-03T09:31:42;0.80;;;0.60;;
72493;SDS011;60520;49.182;-0.348;2023-04-03T09:34:15;0.68;;;0.40;;
72493;SDS011;60520;49.182;-0.348;2023-04-03T09:36:46;0.60;;;0.60;;
72493;SDS011;60520;49.182;-0.348;2023-04-03T09:39:14;0.80;;;0.52;;
72493;SDS011;60520;49.182;-0.348;2023-04-03T09:41:42;1.15;;;0.60;;
72493;SDS011;60520;49.182;-0.348;2023-04-03T09:44:20;1.20;;;0.60;;
72493;SDS011;60520;49.182;-0.348;2023-04-03T09:46:47;1.83;;;0.50;;
72493;SDS011;60520;49.182;-0.348;2023-04-03T09:49:16;1.33;;;0.63;;
72493;SDS011;60520;49.182;-0.348;2023-04-03T09:51:44;0.90;;;0.70;;
72493;SDS011;60520;49.182;-0.348;2023-04-03T09:54:31;1.33;;;0.70;;
72493;SDS011;60520;49.182;-0.348;2023-04-03T09:56:59;1.00;;;0.60;;
72493;SDS011;60520;49.182;-0.348;2023-04-03T09:59:28;0.88;;;0.63;;
72493;SDS011;60520;49.182;-0.348;2023-04-03T10:01:56;1.25;;;0.60;;
72493;SDS011;60520;49.182;-0.348;2023-04-03T10:04:25;1.50;;;0.63;;
72493;SDS011;60520;49.182;-0.348;2023-04-03T10:07:03;0.80;;;0.60;;
72493;SDS011;60520;49.182;-0.348;2023-04-03T10:09:30;1.27;;;0.60;;
72493;SDS011;60520;49.182;-0.348;2023-04-03T10:12:00;0.77;;;0.55;;
72493;SDS011;60520;49.182;-0.348;2023-04-03T10:14:29;1.52;;;0.52;;
72493;SDS011;60520;49.182;-0.348;2023-04-03T10:16:59;1.02;;;0.60;;
72493;SDS011;60520;49.182;-0.348;2023-04-03T10:19:33;1.25;;;0.65;;
72493;SDS011;60520;49.182;-0.348;2023-04-03T10:22:02;1.35;;;0.60;;
72493;SDS011;60520;49.182;-0.348;2023-04-03T10:24:33;0.88;;;0.70;;
72493;SDS011;60520;49.182;-0.348;2023-04-03T10:27:03;0.65;;;0.60;;
72493;SDS011;60520;49.182;-0.348;2023-04-03T10:29:40;0.80;;;0.68;;
72493;SDS011;60520;49.182;-0.348;2023-04-03T10:32:28;0.70;;;0.60;;
72493;SDS011;60520;49.182;-0.348;2023-04-03T10:35:01;0.85;;;0.52;;
72493;SDS011;60520;49.182;-0.348;2023-04-03T10:37:30;1.48;;;0.68;;
72493;SDS011;60520;49.182;-0.348;2023-04-03T10:40:02;1.05;;;0.60;;
72493;SDS011;60520;49.182;-0.348;2023-04-03T10:42:33;0.88;;;0.60;;
72493;SDS011;60520;49.182;-0.348;2023-04-03T10:45:08;0.82;;;0.70;;
72493;SDS011;60520;49.182;-0.348;2023-04-03T10:47:44;0.80;;;0.60;;
72493;SDS011;60520;49.182;-0.348;2023-04-03T10:50:22;1.40;;;0.70;;
72493;SDS011;60520;49.182;-0.348;2023-04-03T10:52:53;0.60;;;0.50;;
72493;SDS011;60520;49.182;-0.348;2023-04-03T10:55:25;1.00;;;0.73;;
72493;SDS011;60520;49.182;-0.348;2023-04-03T10:57:55;1.00;;;0.60;;
72493;SDS011;60520;49.182;-0.348;2023-04-03T11:00:25;0.88;;;0.65;;
72493;SDS011;60520;49.182;-0.348;2023-04-03T11:02:54;1.30;;;0.80;;
72493;SDS011;60520;49.182;-0.348;2023-04-03T11:05:26;1.05;;;0.60;;
72493;SDS011;60520;49.182;-0.348;2023-04-03T11:07:57;0.63;;;0.60;;
72493;SDS011;60520;49.182;-0.348;2023-04-03T11:10:29;0.60;;;0.55;;
72493;SDS011;60520;49.182;-0.348;2023-04-03T11:12:58;0.95;;;0.55;;
72493;SDS011;60520;49.182;-0.348;2023-04-03T11:15:29;0.75;;;0.70;;
72493;SDS011;60520;49.182;-0.348;2023-04-03T11:17:59;0.88;;;0.47;;
72493;SDS011;60520;49.182;-0.348;2023-04-03T11:20:30;0.63;;;0.50;;
72493;SDS011;60520;49.182;-0.348;2023-04-03T11:23:00;1.25;;;0.68;;
72493;SDS011;60520;49.182;-0.348;2023-04-03T11:25:29;0.95;;;0.60;;
72493;SDS011;60520;49.182;-0.348;2023-04-03T11:27:57;1.10;;;0.60;;
72493;SDS011;60520;49.182;-0.348;2023-04-03T11:30:27;1.20;;;0.70;;
72493;SDS011;60520;49.182;-0.348;2023-04-03T11:33:03;1.50;;;0.75;;
72493;SDS011;60520;49.182;-0.348;2023-04-03T11:35:33;0.85;;;0.63;;
72493;SDS011;60520;49.182;-0.348;2023-04-03T11:38:01;0.82;;;0.60;;
72493;SDS011;60520;49.182;-0.348;2023-04-03T11:40:31;1.25;;;0.68;;
72493;SDS011;60520;49.182;-0.348;2023-04-03T11:43:03;1.70;;;0.70;;
72493;SDS011;60520;49.182;-0.348;2023-04-03T11:45:38;0.50;;;0.50;;
72493;SDS011;60520;49.182;-0.348;2023-04-03T11:51:03;1.77;;;0.70;;
72493;SDS011;60520;49.182;-0.348;2023-04-03T11:53:50;0.73;;;0.50;;
72493;SDS011;60520;49.182;-0.348;2023-04-03T11:56:28;0.73;;;0.60;;
72493;SDS011;60520;49.182;-0.348;2023-04-03T11:59:15;0.75;;;0.50;;
72493;SDS011;60520;49.182;-0.348;2023-04-03T12:01:45;0.75;;;0.50;;
72493;SDS011;60520;49.182;-0.348;2023-04-03T12:04:12;1.30;;;0.60;;
72493;SDS011;60520;49.182;-0.348;2023-04-03T12:09:25;1.25;;;0.63;;
72493;SDS011;60520;49.182;-0.348;2023-04-03T12:11:53;0.60;;;0.50;;
72493;SDS011;60520;49.182;-0.348;2023-04-03T12:14:22;1.17;;;0.50;;
72493;SDS011;60520;49.182;-0.348;2023-04-03T12:16:49;1.42;;;0.70;;
72493;SDS011;60520;49.182;-0.348;2023-04-03T12:19:32;1.60;;;0.65;;
72493;SDS011;60520;49.182;-0.348;2023-04-03T12:24:51;1.77;;;0.80;;
72493;SDS011;60520;49.182;-0.348;2023-04-03T12:27:29;0.85;;;0.52;;
72493;SDS011;60520;49.182;-0.348;2023-04-03T12:30:01;1.30;;;0.60;;
72493;SDS011;60520;49.182;-0.348;2023-04-03T12:35:20;1.25;;;0.70;;
72493;SDS011;60520;49.182;-0.348;2023-04-03T12:40:37;1.90;;;0.82;;
72493;SDS011;60520;49.182;-0.348;2023-04-03T12:43:10;0.75;;;0.65;;
72493;SDS011;60520;49.182;-0.348;2023-04-03T12:45:43;0.88;;;0.50;;
72493;SDS011;60520;49.182;-0.348;2023-04-03T12:48:15;0.50;;;0.47;;
72493;SDS011;60520;49.182;-0.348;2023-04-03T12:50:43;0.70;;;0.60;;
72493;SDS011;60520;49.182;-0.348;2023-04-03T12:53:12;1.00;;;0.60;;
72493;SDS011;60520;49.182;-0.348;2023-04-03T12:55:41;0.90;;;0.75;;
72493;SDS011;60520;49.182;-0.348;2023-04-03T12:58:21;0.70;;;0.60;;
72493;SDS011;60520;49.182;-0.348;2023-04-03T13:00:58;1.20;;;0.77;;
72493;SDS011;60520;49.182;-0.348;2023-04-03T13:03:25;0.90;;;0.60;;
72493;SDS011;60520;49.182;-0.348;2023-04-03T13:05:53;1.10;;;0.60;;
72493;SDS011;60520;49.182;-0.348;2023-04-03T13:08:21;0.80;;;0.60;;
72493;SDS011;60520;49.182;-0.348;2023-04-03T13:10:52;0.70;;;0.60;;
72493;SDS011;60520;49.182;-0.348;2023-04-03T13:13:21;0.52;;;0.50;;
72493;SDS011;60520;49.182;-0.348;2023-04-03T13:15:49;1.23;;;0.90;;
72493;SDS011;60520;49.182;-0.348;2023-04-03T13:18:21;1.95;;;0.55;;
72493;SDS011;60520;49.182;-0.348;2023-04-03T13:20:48;1.15;;;0.60;;
72493;SDS011;60520;49.182;-0.348;2023-04-03T13:23:16;0.60;;;0.50;;
72493;SDS011;60520;49.182;-0.348;2023-04-03T13:25:45;0.90;;;0.60;;
72493;SDS011;60520;49.182;-0.348;2023-04-03T13:28:14;0.65;;;0.60;;
72493;SDS011;60520;49.182;-0.348;2023-04-03T13:30:54;0.95;;;0.70;;
72493;SDS011;60520;49.182;-0.348;2023-04-03T13:33:23;0.73;;;0.55;;
72493;SDS011;60520;49.182;-0.348;2023-04-03T13:35:54;1.05;;;0.52;;
72493;SDS011;60520;49.182;-0.348;2023-04-03T13:38:22;1.27;;;0.60;;
72493;SDS011;60520;49.182;-0.348;2023-04-03T13:40:50;0.70;;;0.60;;
72493;SDS011;60520;49.182;-0.348;2023-04-03T13:43:20;0.63;;;0.60;;
72493;SDS011;60520;49.182;-0.348;2023-04-03T13:45:58;0.65;;;0.50;;
72493;SDS011;60520;49.182;-0.348;2023-04-03T13:48:25;1.50;;;0.77;;
72493;SDS011;60520;49.182;-0.348;2023-04-03T13:50:55;1.40;;;0.70;;
72493;SDS011;60520;49.182;-0.348;2023-04-03T13:53:23;0.90;;;0.68;;
72493;SDS011;60520;49.182;-0.348;2023-04-03T13:55:53;1.00;;;0.60;;
72493;SDS011;60520;49.182;-0.348;2023-04-03T13:58:23;0.90;;;0.50;;
72493;SDS011;60520;49.182;-0.348;2023-04-03T14:00:51;0.73;;;0.60;;
72493;SDS011;60520;49.182;-0.348;2023-04-03T14:03:19;0.68;;;0.50;;
72493;SDS011;60520;49.182;-0.348;2023-04-03T14:05:47;0.80;;;0.70;;
72493;SDS011;60520;49.182;-0.348;2023-04-03T14:08:14;1.50;;;0.70;;
72493;SDS011;60520;49.182;-0.348;2023-04-03T14:10:42;0.77;;;0.60;;
72493;SDS011;60520;49.182;-0.348;2023-04-03T14:13:11;0.80;;;0.60;;
72493;SDS011;60520;49.182;-0.348;2023-04-03T14:15:39;0.88;;;0.60;;
72493;SDS011;60520;49.182;-0.348;2023-04-03T14:18:09;1.88;;;0.80;;
72493;SDS011;60520;49.182;-0.348;2023-04-03T14:20:36;0.70;;;0.50;;
72493;SDS011;60520;49.182;-0.348;2023-04-03T14:23:04;0.82;;;0.52;;
72493;SDS011;60520;49.182;-0.348;2023-04-03T14:25:31;0.70;;;0.65;;
72493;SDS011;60520;49.182;-0.348;2023-04-03T14:27:59;0.57;;;0.55;;
72493;SDS011;60520;49.182;-0.348;2023-04-03T14:30:27;0.77;;;0.68;;
72493;SDS011;60520;49.182;-0.348;2023-04-03T14:32:56;1.73;;;0.82;;
72493;SDS011;60520;49.182;-0.348;2023-04-03T14:35:23;1.20;;;0.70;;
72493;SDS011;60520;49.182;-0.348;2023-04-03T14:37:50;0.70;;;0.60;;
72493;SDS011;60520;49.182;-0.348;2023-04-03T14:40:20;1.85;;;0.70;;
72493;SDS011;60520;49.182;-0.348;2023-04-03T14:42:47;1.02;;;0.68;;
72493;SDS011;60520;49.182;-0.348;2023-04-03T14:45:16;0.90;;;0.65;;
72493;SDS011;60520;49.182;-0.348;2023-04-03T14:47:44;0.93;;;0.65;;
72493;SDS011;60520;49.182;-0.348;2023-04-03T14:50:16;0.80;;;0.70;;
72493;SDS011;60520;49.182;-0.348;2023-04-03T14:52:46;0.63;;;0.50;;
72493;SDS011;60520;49.182;-0.348;2023-04-03T14:55:15;0.73;;;0.65;;
72493;SDS011;60520;49.182;-0.348;2023-04-03T14:57:42;0.82;;;0.50;;
72493;SDS011;60520;49.182;-0.348;2023-04-03T15:00:11;1.58;;;0.60;;
72493;SDS011;60520;49.182;-0.348;2023-04-03T15:02:39;1.25;;;0.80;;